Anacortes, WA (98221)

10:44 PM PDT on September 17, 2014 (GMT -0700)
above Lovric's | Change Station
CLOSE
Current Station
Personal Weather Station
Location: Anacortes, WA
Elevation: 60 ft
Nearby Weather Stations
4.0 Earthquake: Seabeck, Washington (19 hours ago)  

Elev 60 ft 48.51 °N, 122.64 °W | Updated 4 minutes ago

Overcast
Overcast
58.9 °F
Feels Like 58.9 °F
N
0.0
Wind Variable Wind from NE
Gusts 0.0 mph

Today
High -- | Low -- °F
--% Chance of Precip.
Yesterday
High -- | Low -- °F
Precip. -- in
6:50 AM 7:18 PM
Waning Crescent, 30% visible
Pressure 29.78 in
Visibility 7.0 miles
Clouds Scattered Clouds 2800 ft
Mostly Cloudy 4500 ft
Overcast 6000 ft
Dew Point 59 °F
Humidity 100%
Rainfall 0.09 in
Snow Depth 0 in , 1 in , 0 in
UV 0 out of 12
Pollen 1.40 out of 12
PM2.5 Good
Flu Activity Not available.
METAR KBVS 180535Z AUTO 00000KT 7SM SCT028 BKN045 OVC060 15/14 A2978 RMK A01 P003

More Conditions Fewer Conditions

Pressure 29.78 in
Visibility 7.0 miles
Clouds Scattered Clouds 2800 ft
Mostly Cloudy 4500 ft
Overcast 6000 ft
Dew Point 59 °F
Humidity 100%
Rainfall 0.09 in
Snow Depth 0 in , 1 in , 0 in
UV 0 out of 12
Pollen 1.40 out of 12
PM2.5 Good
Flu Activity Not available.
METAR KBVS 180535Z AUTO 00000KT 7SM SCT028 BKN045 OVC060 15/14 A2978 RMK A01 P003

More Conditions Fewer Conditions

10-Day Weather Forecast

Almanac

Astronomy

Sep. 17, 2014 Rise Set
Actual Time 6:50 AM PDT 7:18 PM PDT
Civil Twilight 6:18 AM PDT 7:49 PM PDT
Nautical Twilight 5:41 AM PDT 8:27 PM PDT
Astronomical Twilight 5:02 AM PDT 9:05 PM PDT
Moon 12:34 AM PDT (9/17) 3:51 PM PDT (9/17)
Length of Visible Light 13h 31m
Length of Day
12h 28m
Tomorrow will be 3m 31s shorter.
Waning Crescent, 30% of the Moon is Illuminated
Sep 18
Waning Crescent
Sep 24
New
Oct 1
First Quarter
Oct 8
Full
Oct 15
Last Quarter

Yesterday's Extremes

State Highs State Lows

Community

WunderPhotos

Upload Photos

1,754,292 photos uploaded!

Nearby

Air Quality

  Air Quality AQ Index Pollutant
Yesterday Good
PM2.5
Yesterday Good
OZONE
Current Good
PM2.5
Wednesday Good
OZONE
Wednesday Good
PM2.5
Thursday Good
OZONE
Thursday Good
PM2.5
Friday Good
OZONE
Friday Good
PM2.5
Saturday Good
OZONE
Saturday Good
PM2.5

Snow Depth

Station Depth Elevation
Sentinel Butte 0 in 4920 ft
Moses Mountain 1 in 5300 ft
Lost Horse 0 in 5000 ft
Sasse Ridge 0 in 4200 ft
Surprise Lakes 0 in 4250 ft

Earthquake Activity

City Distance Mag. Time & Date
Seabeck, Washington 67 miles 4.0 3:06 AM PDT
2014-09-17
Minimum magnitude displayed is 2.5.

Coastal Water Temperatures

Place Temperature
Port Townsend, WA 53.1 °F
Friday Harbor, WA 53.1 °F
Port Angeles, WA 52.0 °F

Nearby Weather Stations